| time (UTC) | temp F | wind direction | speed MPH | gust MPH | rain 1hr in | rain 24hr in | rain mn in | humidity % | barometer mb |
| 20260509224755 | 61 | 51 | 0.0 | 0.0 | 0.00 | 0.00 | 0.00 | 87 | 1012.2 |
| 20260509224252 | 61 | 60 | 0.0 | 0.0 | 0.00 | 0.00 | 0.00 | 87 | 1012.5 |
| 20260509223749 | 61 | 70 | 0.0 | 1.0 | 0.00 | 0.00 | 0.00 | 87 | 1012.4 |
| 20260509223246 | 61 | 57 | 0.0 | 1.0 | 0.00 | 0.00 | 0.00 | 86 | 1012.3 |
| 20260509222743 | 61 | 58 | 0.0 | 0.0 | 0.00 | 0.00 | 0.00 | 86 | 1012.3 |
| 20260509222238 | 62 | 57 | 0.0 | 0.0 | 0.00 | 0.00 | 0.00 | 86 | 1012.2 |
| 20260509221734 | 62 | 59 | 0.0 | 0.0 | 0.00 | 0.00 | 0.00 | 86 | 1012.6 |
| 20260509221231 | 62 | 68 | 0.0 | 0.0 | 0.00 | 0.00 | 0.00 | 86 | 1012.2 |
| 20260509220726 | 62 | 109 | 1.0 | 1.0 | 0.00 | 0.00 | 0.00 | 86 | 1012.3 |
| 20260509220223 | 62 | 50 | 1.0 | 1.0 | 0.00 | 0.00 | 0.00 | 86 | 1012.4 |
| 20260509215719 | 62 | 76 | 0.0 | 2.0 | 0.00 | 0.00 | 0.00 | 86 | 1012.4 |
| 20260509215215 | 62 | 113 | 3.0 | 3.0 | 0.00 | 0.00 | 0.00 | 86 | 1012.3 |
| 20260509214713 | 62 | 133 | 0.0 | 0.0 | 0.00 | 0.00 | 0.00 | 86 | 1012.3 |
| 20260509214210 | 62 | 133 | 0.0 | 0.0 | 0.00 | 0.00 | 0.00 | 86 | 1012.5 |
| 20260509213707 | 62 | 133 | 0.0 | 0.0 | 0.00 | 0.00 | 0.00 | 86 | 1012.4 |
| 20260509213202 | 62 | 133 | 0.0 | 1.0 | 0.00 | 0.00 | 0.00 | 85 | 1012.5 |
| 20260509212700 | 63 | 129 | 0.0 | 2.0 | 0.00 | 0.00 | 0.00 | 85 | 1012.5 |
| 20260509212156 | 62 | 130 | 0.0 | 0.0 | 0.00 | 0.00 | 0.00 | 85 | 1012.5 |
| 20260509211652 | 63 | 130 | 0.0 | 0.0 | 0.00 | 0.00 | 0.00 | 85 | 1012.7 |
| 20260509211149 | 63 | 129 | 1.0 | 1.0 | 0.00 | 0.00 | 0.00 | 85 | 1012.5 |
| 20260509210646 | 63 | 132 | 0.0 | 0.0 | 0.00 | 0.00 | 0.00 | 85 | 1012.4 |
| 20260509210143 | 63 | 139 | 0.0 | 0.0 | 0.00 | 0.00 | 0.00 | 84 | 1012.5 |
| 20260509205638 | 63 | 139 | 0.0 | 0.0 | 0.00 | 0.00 | 0.00 | 85 | 1012.5 |
| 20260509205132 | 63 | 139 | 0.0 | 0.0 | 0.00 | 0.00 | 0.00 | 84 | 1012.4 |
| 20260509204629 | 63 | 139 | 0.0 | 0.0 | 0.00 | 0.00 | 0.00 | 84 | 1012.6 |
| 20260509204125 | 64 | 144 | 0.0 | 0.0 | 0.00 | 0.00 | 0.00 | 84 | 1012.5 |
| 20260509203621 | 64 | 144 | 0.0 | 0.0 | 0.00 | 0.00 | 0.00 | 84 | 1012.5 |
| 20260509203120 | 63 | 202 | 0.0 | 0.0 | 0.00 | 0.00 | 0.00 | 84 | 1012.5 |
| 20260509202619 | 63 | 202 | 0.0 | 0.0 | 0.00 | 0.00 | 0.00 | 84 | 1012.5 |
| 20260509202115 | 63 | 202 | 0.0 | 0.0 | 0.00 | 0.00 | 0.00 | 83 | 1012.5 |
| 20260509201610 | 64 | 202 | 0.0 | 0.0 | 0.00 | 0.00 | 0.00 | 83 | 1012.6 |
| 20260509201109 | 64 | 202 | 0.0 | 0.0 | 0.00 | 0.00 | 0.00 | 83 | 1012.6 |
| 20260509200608 | 64 | 207 | 1.0 | 1.0 | 0.00 | 0.00 | 0.00 | 83 | 1012.4 |
| 20260509200104 | 64 | 253 | 0.0 | 0.0 | 0.00 | 0.00 | 0.00 | 83 | 1012.6 |
| 20260509195600 | 64 | 253 | 0.0 | 0.0 | 0.00 | 0.00 | 0.00 | 83 | 1012.4 |
| 20260509195055 | 64 | 253 | 0.0 | 0.0 | 0.00 | 0.00 | 0.00 | 82 | 1012.6 |
| 20260509194555 | 64 | 253 | 0.0 | 1.0 | 0.00 | 0.00 | 0.00 | 82 | 1012.4 |
| 20260509194053 | 64 | 253 | 0.0 | 0.0 | 0.00 | 0.00 | 0.00 | 82 | 1012.5 |
| 20260509193549 | 65 | 253 | 0.0 | 1.0 | 0.00 | 0.00 | 0.00 | 82 | 1012.5 |
| 20260509193045 | 64 | 253 | 0.0 | 0.0 | 0.00 | 0.00 | 0.00 | 82 | 1012.6 |
| 20260509192542 | 65 | 253 | 0.0 | 0.0 | 0.00 | 0.00 | 0.00 | 82 | 1012.6 |
| 20260509192037 | 65 | 253 | 0.0 | 0.0 | 0.00 | 0.00 | 0.00 | 82 | 1012.5 |
| 20260509191537 | 65 | 253 | 0.0 | 0.0 | 0.00 | 0.00 | 0.00 | 82 | 1012.5 |
| 20260509191033 | 65 | 253 | 0.0 | 0.0 | 0.00 | 0.00 | 0.00 | 81 | 1012.7 |
| 20260509190530 | 66 | 253 | 0.0 | 0.0 | 0.00 | 0.00 | 0.00 | 81 | 1012.4 |
| 20260509190028 | 66 | 254 | 0.0 | 0.0 | 0.00 | 0.00 | 0.00 | 81 | 1012.4 |
| 20260509185525 | 66 | 253 | 0.0 | 1.0 | 0.00 | 0.00 | 0.00 | 81 | 1012.4 |
| 20260509185021 | 66 | 253 | 0.0 | 1.0 | 0.00 | 0.00 | 0.00 | 81 | 1012.3 |
| 20260509184520 | 66 | 252 | 1.0 | 1.0 | 0.00 | 0.00 | 0.00 | 80 | 1012.4 |
| 20260509184016 | 66 | 213 | 1.0 | 1.0 | 0.00 | 0.00 | 0.00 | 80 | 1012.5 |
| 20260509183511 | 66 | 220 | 0.0 | 1.0 | 0.00 | 0.00 | 0.00 | 80 | 1012.3 |
| 20260509183007 | 66 | 229 | 0.0 | 1.0 | 0.00 | 0.00 | 0.00 | 79 | 1012.4 |
| 20260509182503 | 66 | 258 | 1.0 | 2.0 | 0.00 | 0.00 | 0.00 | 79 | 1012.4 |
| 20260509181955 | 67 | 266 | 2.0 | 2.0 | 0.00 | 0.00 | 0.00 | 79 | 1012.2 |
| 20260509181454 | 67 | 339 | 0.0 | 1.0 | 0.00 | 0.00 | 0.00 | 78 | 1012.2 |
| 20260509180950 | 67 | 339 | 0.0 | 0.0 | 0.00 | 0.00 | 0.00 | 78 | 1012.2 |
| 20260509180445 | 67 | 338 | 1.0 | 1.0 | 0.00 | 0.00 | 0.00 | 77 | 1012.4 |
| 20260509175942 | 67 | 339 | 0.0 | 0.0 | 0.00 | 0.00 | 0.00 | 77 | 1012.2 |
| 20260509175439 | 67 | 339 | 0.0 | 1.0 | 0.00 | 0.00 | 0.00 | 77 | 1012.2 |
| 20260509174935 | 67 | 339 | 0.0 | 1.0 | 0.00 | 0.00 | 0.00 | 77 | 1012.2 |
| 20260509174431 | 68 | 339 | 0.0 | 0.0 | 0.00 | 0.00 | 0.00 | 77 | 1012.1 |
| 20260509173927 | 68 | 339 | 0.0 | 1.0 | 0.00 | 0.00 | 0.00 | 76 | 1012.0 |
| 20260509173421 | 68 | 339 | 0.0 | 1.0 | 0.00 | 0.00 | 0.00 | 76 | 1012.0 |
| 20260509172918 | 68 | 312 | 1.0 | 2.0 | 0.00 | 0.00 | 0.00 | 76 | 1011.6 |
| 20260509172415 | 68 | 355 | 1.0 | 1.0 | 0.00 | 0.00 | 0.00 | 75 | 1011.8 |
| 20260509171911 | 68 | 335 | 1.0 | 2.0 | 0.00 | 0.00 | 0.00 | 75 | 1011.8 |
| 20260509171407 | 69 | 334 | 2.0 | 5.0 | 0.00 | 0.00 | 0.00 | 75 | 1011.8 |
| 20260509170903 | 69 | 295 | 2.0 | 3.0 | 0.00 | 0.00 | 0.00 | 74 | 1011.7 |
| 20260509170359 | 69 | 291 | 3.0 | 3.0 | 0.00 | 0.00 | 0.00 | 73 | 1011.8 |
| 20260509165855 | 69 | 309 | 2.0 | 3.0 | 0.00 | 0.00 | 0.00 | 73 | 1011.6 |
| 20260509165349 | 69 | 314 | 2.0 | 3.0 | 0.00 | 0.00 | 0.00 | 72 | 1011.6 |
| 20260509164845 | 70 | 321 | 3.0 | 5.0 | 0.00 | 0.00 | 0.00 | 71 | 1011.6 |
| 20260509164341 | 70 | 358 | 5.0 | 7.0 | 0.00 | 0.00 | 0.00 | 70 | 1011.5 |
| 20260509163837 | 71 | 343 | 4.0 | 6.0 | 0.00 | 0.00 | 0.00 | 68 | 1011.4 |
| 20260509163333 | 71 | 309 | 3.0 | 7.0 | 0.00 | 0.00 | 0.00 | 68 | 1011.5 |
| 20260509162833 | 71 | 340 | 5.0 | 9.0 | 0.00 | 0.00 | 0.00 | 67 | 1011.6 |
| 20260509162331 | 72 | 8 | 2.0 | 5.0 | 0.00 | 0.00 | 0.00 | 65 | 1011.6 |
| 20260509161828 | 72 | 350 | 4.0 | 6.0 | 0.00 | 0.00 | 0.00 | 65 | 1011.4 |
| 20260509161319 | 72 | 346 | 4.0 | 8.0 | 0.00 | 0.00 | 0.00 | 64 | 1011.2 |
| 20260509160815 | 72 | 347 | 5.0 | 10.0 | 0.00 | 0.00 | 0.00 | 63 | 1011.1 |
| 20260509160311 | 73 | 310 | 8.0 | 10.0 | 0.00 | 0.00 | 0.00 | 63 | 1011.2 |
| 20260509155806 | 73 | 343 | 6.0 | 11.0 | 0.00 | 0.00 | 0.00 | 62 | 1011.0 |
| 20260509155306 | 73 | 5 | 5.0 | 11.0 | 0.00 | 0.00 | 0.00 | 62 | 1011.2 |
| 20260509154759 | 73 | 338 | 8.0 | 10.0 | 0.00 | 0.00 | 0.00 | 61 | 1011.0 |
| 20260509154256 | 75 | 18 | 5.0 | 9.0 | 0.00 | 0.00 | 0.00 | 60 | 1010.9 |
| 20260509153753 | 75 | 51 | 4.0 | 7.0 | 0.00 | 0.00 | 0.00 | 59 | 1010.9 |
| 20260509153248 | 75 | 358 | 6.0 | 9.0 | 0.00 | 0.00 | 0.00 | 59 | 1011.2 |
| 20260509152745 | 74 | 338 | 6.0 | 10.0 | 0.00 | 0.00 | 0.00 | 59 | 1011.1 |
| 20260509152242 | 75 | 350 | 9.0 | 13.0 | 0.00 | 0.00 | 0.00 | 58 | 1010.9 |
| 20260509151739 | 75 | 4 | 5.0 | 8.0 | 0.00 | 0.00 | 0.00 | 58 | 1010.8 |
| 20260509151235 | 76 | 2 | 4.0 | 9.0 | 0.00 | 0.00 | 0.00 | 57 | 1010.7 |
| 20260509150734 | 76 | 342 | 7.0 | 10.0 | 0.00 | 0.00 | 0.00 | 57 | 1010.7 |
| 20260509150231 | 76 | 341 | 6.0 | 9.0 | 0.00 | 0.00 | 0.00 | 56 | 1010.7 |
| 20260509145728 | 76 | 312 | 6.0 | 11.0 | 0.00 | 0.00 | 0.00 | 55 | 1010.7 |
| 20260509145223 | 76 | 341 | 6.0 | 10.0 | 0.00 | 0.00 | 0.00 | 55 | 1010.6 |
| 20260509144719 | 78 | 15 | 5.0 | 9.0 | 0.00 | 0.00 | 0.00 | 53 | 1010.6 |
| 20260509144216 | 77 | 356 | 11.0 | 16.0 | 0.00 | 0.00 | 0.00 | 53 | 1010.6 |
| 20260509143714 | 78 | 346 | 5.0 | 10.0 | 0.00 | 0.00 | 0.00 | 52 | 1010.5 |
| 20260509143211 | 78 | 16 | 5.0 | 11.0 | 0.00 | 0.00 | 0.00 | 51 | 1010.4 |
| 20260509142706 | 79 | 270 | 11.0 | 15.0 | 0.00 | 0.00 | 0.00 | 48 | 1010.5 |
| 20260509142203 | 80 | 352 | 8.0 | 11.0 | 0.00 | 0.00 | 0.00 | 46 | 1010.2 |
| 20260509141659 | 80 | 337 | 7.0 | 11.0 | 0.00 | 0.00 | 0.00 | 44 | 1010.4 |
| 20260509141156 | 79 | 8 | 9.0 | 17.0 | 0.00 | 0.00 | 0.00 | 46 | 1010.4 |
| 20260509140652 | 80 | 347 | 8.0 | 10.0 | 0.00 | 0.00 | 0.00 | 44 | 1010.4 |
| 20260509140150 | 81 | 338 | 11.0 | 15.0 | 0.00 | 0.00 | 0.00 | 42 | 1010.3 |
| 20260509135647 | 82 | 7 | 7.0 | 10.0 | 0.00 | 0.00 | 0.00 | 40 | 1010.3 |
| 20260509135145 | 80 | 312 | 11.0 | 18.0 | 0.00 | 0.00 | 0.00 | 40 | 1010.4 |
| 20260509134641 | 81 | 320 | 9.0 | 13.0 | 0.00 | 0.00 | 0.00 | 41 | 1010.3 |
| 20260509134139 | 82 | 343 | 12.0 | 17.0 | 0.00 | 0.00 | 0.00 | 41 | 1010.4 |
| 20260509133636 | 82 | 34 | 7.0 | 16.0 | 0.00 | 0.00 | 0.00 | 40 | 1010.5 |
| 20260509133133 | 82 | 338 | 7.0 | 17.0 | 0.00 | 0.00 | 0.00 | 40 | 1010.4 |
| 20260509132631 | 82 | 77 | 6.0 | 11.0 | 0.00 | 0.00 | 0.00 | 40 | 1010.3 |
| 20260509132130 | 82 | 340 | 14.0 | 16.0 | 0.00 | 0.00 | 0.00 | 42 | 1010.3 |
| 20260509131625 | 81 | 358 | 3.0 | 15.0 | 0.00 | 0.00 | 0.00 | 42 | 1010.5 |
| 20260509131123 | 82 | 237 | 8.0 | 9.0 | 0.00 | 0.00 | 0.00 | 42 | 1010.7 |
| 20260509130618 | 82 | 70 | 11.0 | 16.0 | 0.00 | 0.00 | 0.00 | 42 | 1010.4 |
| 20260509130115 | 80 | 356 | 9.0 | 17.0 | 0.00 | 0.00 | 0.00 | 45 | 1010.6 |
| 20260509125611 | 81 | 325 | 10.0 | 18.0 | 0.00 | 0.00 | 0.00 | 45 | 1010.5 |
| 20260509125108 | 82 | 349 | 7.0 | 9.0 | 0.00 | 0.00 | 0.00 | 43 | 1010.7 |
| 20260509124605 | 82 | 39 | 5.0 | 10.0 | 0.00 | 0.00 | 0.00 | 42 | 1010.6 |
| 20260509124102 | 81 | 309 | 9.0 | 16.0 | 0.00 | 0.00 | 0.00 | 43 | 1010.6 |
| 20260509123600 | 82 | 337 | 12.0 | 18.0 | 0.00 | 0.00 | 0.00 | 43 | 1010.6 |
| 20260509123056 | 81 | 339 | 12.0 | 18.0 | 0.00 | 0.00 | 0.00 | 44 | 1010.5 |
| 20260509122552 | 82 | 0 | 13.0 | 17.0 | 0.00 | 0.00 | 0.00 | 42 | 1010.4 |
| 20260509122050 | 82 | 336 | 10.0 | 20.0 | 0.00 | 0.00 | 0.00 | 44 | 1010.4 |
| 20260509121546 | 83 | 349 | 12.0 | 16.0 | 0.00 | 0.00 | 0.00 | 42 | 1010.5 |
| 20260509121048 | 83 | 5 | 4.0 | 10.0 | 0.00 | 0.00 | 0.00 | 43 | 1010.6 |
| 20260509120542 | 82 | 121 | 9.0 | 16.0 | 0.00 | 0.00 | 0.00 | 42 | 1010.5 |
| 20260509120040 | 82 | 344 | 7.0 | 15.0 | 0.00 | 0.00 | 0.00 | 44 | 1010.6 |
| 20260509115536 | 81 | 9 | 7.0 | 9.0 | 0.00 | 0.00 | 0.00 | 46 | 1010.5 |
| 20260509115034 | 81 | 331 | 8.0 | 16.0 | 0.00 | 0.00 | 0.00 | 48 | 1010.5 |
| 20260509114532 | 81 | 352 | 8.0 | 15.0 | 0.00 | 0.00 | 0.00 | 48 | 1010.5 |
| 20260509114031 | 82 | 350 | 5.0 | 13.0 | 0.00 | 0.00 | 0.00 | 47 | 1010.6 |
| 20260509113529 | 81 | 331 | 9.0 | 18.0 | 0.00 | 0.00 | 0.00 | 48 | 1010.6 |
| 20260509113026 | 82 | 316 | 8.0 | 13.0 | 0.00 | 0.00 | 0.00 | 48 | 1010.8 |
| 20260509112522 | 81 | 157 | 11.0 | 18.0 | 0.00 | 0.00 | 0.00 | 48 | 1010.6 |
| 20260509112019 | 81 | 333 | 7.0 | 14.0 | 0.00 | 0.00 | 0.00 | 49 | 1011.0 |
| 20260509111517 | 81 | 341 | 9.0 | 11.0 | 0.00 | 0.00 | 0.00 | 49 | 1010.9 |
| 20260509111014 | 81 | 307 | 7.0 | 9.0 | 0.00 | 0.00 | 0.00 | 49 | 1011.1 |
| 20260509110510 | 82 | 358 | 5.0 | 16.0 | 0.00 | 0.00 | 0.00 | 50 | 1011.1 |
| 20260509110008 | 80 | 1 | 3.0 | 10.0 | 0.00 | 0.00 | 0.00 | 53 | 1010.8 |
| 20260509105506 | 80 | 339 | 12.0 | 13.0 | 0.00 | 0.00 | 0.00 | 53 | 1011.0 |
| 20260509105003 | 80 | 309 | 8.0 | 9.0 | 0.00 | 0.00 | 0.00 | 56 | 1011.0 |
| 20260509104459 | 79 | 298 | 7.0 | 10.0 | 0.00 | 0.00 | 0.00 | 59 | 1011.1 |
| 20260509103957 | 79 | 345 | 12.0 | 14.0 | 0.00 | 0.00 | 0.00 | 58 | 1011.3 |
| 20260509103455 | 78 | 277 | 7.0 | 11.0 | 0.00 | 0.00 | 0.00 | 60 | 1011.3 |
| 20260509102952 | 78 | 338 | 6.0 | 7.0 | 0.00 | 0.00 | 0.00 | 61 | 1011.4 |
| 20260509102449 | 79 | 299 | 4.0 | 5.0 | 0.00 | 0.00 | 0.00 | 62 | 1011.3 |
| 20260509101946 | 78 | 300 | 7.0 | 9.0 | 0.00 | 0.00 | 0.00 | 63 | 1011.4 |
| 20260509101442 | 79 | 272 | 8.0 | 10.0 | 0.00 | 0.00 | 0.00 | 62 | 1011.4 |
| 20260509100939 | 78 | 320 | 4.0 | 13.0 | 0.00 | 0.00 | 0.00 | 64 | 1011.4 |
| 20260509100437 | 77 | 321 | 11.0 | 14.0 | 0.00 | 0.00 | 0.00 | 65 | 1011.4 |
| 20260509095933 | 78 | 346 | 3.0 | 8.0 | 0.00 | 0.00 | 0.00 | 64 | 1011.5 |
| 20260509095430 | 78 | 270 | 5.0 | 8.0 | 0.00 | 0.00 | 0.00 | 65 | 1011.4 |
| 20260509094927 | 77 | 316 | 10.0 | 13.0 | 0.00 | 0.00 | 0.00 | 66 | 1011.5 |
| 20260509094424 | 77 | 282 | 6.0 | 10.0 | 0.00 | 0.00 | 0.00 | 66 | 1011.7 |
| 20260509093922 | 77 | 322 | 6.0 | 11.0 | 0.00 | 0.00 | 0.00 | 65 | 1011.7 |
| 20260509093419 | 77 | 266 | 10.0 | 13.0 | 0.00 | 0.00 | 0.00 | 66 | 1011.6 |
| 20260509092917 | 78 | 346 | 9.0 | 10.0 | 0.00 | 0.00 | 0.00 | 64 | 1011.8 |
| 20260509092414 | 77 | 276 | 8.0 | 10.0 | 0.00 | 0.00 | 0.00 | 65 | 1011.8 |
| 20260509091913 | 78 | 343 | 10.0 | 14.0 | 0.00 | 0.00 | 0.00 | 65 | 1012.0 |
| 20260509091409 | 77 | 278 | 7.0 | 13.0 | 0.00 | 0.00 | 0.00 | 65 | 1012.0 |
| 20260509090907 | 78 | 297 | 7.0 | 14.0 | 0.00 | 0.00 | 0.00 | 64 | 1012.0 |
| 20260509090404 | 79 | 346 | 8.0 | 15.0 | 0.00 | 0.00 | 0.00 | 62 | 1012.0 |
| 20260509085902 | 79 | 335 | 4.0 | 8.0 | 0.00 | 0.00 | 0.00 | 53 | 1012.0 |
| 20260509085359 | 79 | 61 | 5.0 | 7.0 | 0.00 | 0.00 | 0.00 | 54 | 1012.0 |
| 20260509084855 | 79 | 347 | 8.0 | 10.0 | 0.00 | 0.00 | 0.00 | 53 | 1012.0 |
| 20260509084352 | 78 | 299 | 3.0 | 6.0 | 0.00 | 0.00 | 0.00 | 54 | 1012.2 |
| 20260509083850 | 78 | 65 | 1.0 | 2.0 | 0.00 | 0.00 | 0.00 | 56 | 1012.2 |
| 20260509083346 | 77 | 31 | 5.0 | 11.0 | 0.00 | 0.00 | 0.00 | 57 | 1012.1 |
| 20260509082843 | 77 | 329 | 5.0 | 7.0 | 0.00 | 0.00 | 0.00 | 58 | 1012.4 |
| 20260509082339 | 76 | 307 | 4.0 | 8.0 | 0.00 | 0.00 | 0.00 | 59 | 1012.3 |
| 20260509081837 | 77 | 28 | 2.0 | 8.0 | 0.00 | 0.00 | 0.00 | 59 | 1012.3 |
| 20260509081333 | 76 | 315 | 5.0 | 9.0 | 0.00 | 0.00 | 0.00 | 61 | 1012.2 |
| 20260509080831 | 75 | 312 | 2.0 | 11.0 | 0.00 | 0.00 | 0.00 | 62 | 1012.4 |
| 20260509080329 | 75 | 327 | 6.0 | 8.0 | 0.00 | 0.00 | 0.00 | 61 | 1012.2 |
| 20260509075827 | 76 | 47 | 3.0 | 8.0 | 0.00 | 0.00 | 0.00 | 61 | 1012.3 |
| 20260509075324 | 75 | 276 | 0.0 | 6.0 | 0.00 | 0.00 | 0.00 | 62 | 1012.3 |
| 20260509074821 | 76 | 18 | 1.0 | 3.0 | 0.00 | 0.00 | 0.00 | 61 | 1012.3 |
| 20260509074319 | 75 | 346 | 1.0 | 5.0 | 0.00 | 0.00 | 0.00 | 63 | 1012.4 |
| 20260509073815 | 75 | 315 | 5.0 | 8.0 | 0.00 | 0.00 | 0.00 | 62 | 1012.3 |
| 20260509073311 | 74 | 5 | 2.0 | 7.0 | 0.00 | 0.00 | 0.00 | 64 | 1012.3 |
| 20260509072808 | 75 | 12 | 2.0 | 5.0 | 0.00 | 0.00 | 0.00 | 64 | 1012.3 |
| 20260509072306 | 74 | 351 | 1.0 | 2.0 | 0.00 | 0.00 | 0.00 | 64 | 1012.5 |
| 20260509071801 | 73 | 0 | 1.0 | 3.0 | 0.00 | 0.00 | 0.00 | 65 | 1012.4 |
| 20260509071258 | 74 | 357 | 1.0 | 3.0 | 0.00 | 0.00 | 0.00 | 64 | 1012.2 |
| 20260509070755 | 74 | 105 | 0.0 | 2.0 | 0.00 | 0.00 | 0.00 | 63 | 1012.3 |
| 20260509070251 | 73 | 104 | 1.0 | 3.0 | 0.00 | 0.00 | 0.00 | 65 | 1012.5 |
| 20260509065748 | 72 | 301 | 1.0 | 2.0 | 0.00 | 0.00 | 0.00 | 67 | 1012.5 |
| 20260509065244 | 71 | 340 | 3.0 | 6.0 | 0.00 | 0.00 | 0.00 | 67 | 1012.5 |
| 20260509064741 | 72 | 354 | 2.0 | 7.0 | 0.00 | 0.00 | 0.00 | 67 | 1012.6 |
| 20260509064238 | 73 | 101 | 3.0 | 5.0 | 0.00 | 0.00 | 0.00 | 67 | 1012.4 |
| 20260509063736 | 73 | 347 | 3.0 | 3.0 | 0.00 | 0.00 | 0.00 | 68 | 1012.5 |
| 20260509063232 | 72 | 235 | 1.0 | 1.0 | 0.00 | 0.00 | 0.00 | 69 | 1012.6 |
| 20260509062729 | 71 | 235 | 1.0 | 3.0 | 0.00 | 0.00 | 0.00 | 70 | 1012.6 |
| 20260509062226 | 70 | 214 | 1.0 | 2.0 | 0.00 | 0.00 | 0.00 | 71 | 1012.6 |
| 20260509061723 | 70 | 286 | 3.0 | 3.0 | 0.00 | 0.00 | 0.00 | 72 | 1012.5 |
| 20260509061221 | 69 | 243 | 0.0 | 1.0 | 0.00 | 0.00 | 0.00 | 74 | 1012.4 |
| 20260509060718 | 69 | 243 | 3.0 | 5.0 | 0.00 | 0.00 | 0.00 | 74 | 1012.5 |
| 20260509060214 | 69 | 231 | 2.0 | 5.0 | 0.00 | 0.00 | 0.00 | 74 | 1012.6 |
| 20260509055710 | 70 | 239 | 2.0 | 3.0 | 0.00 | 0.00 | 0.00 | 73 | 1012.7 |
| 20260509055206 | 69 | 125 | 1.0 | 1.0 | 0.00 | 0.00 | 0.00 | 74 | 1012.7 |
| 20260509054703 | 69 | 291 | 1.0 | 2.0 | 0.00 | 0.00 | 0.00 | 75 | 1012.7 |
| 20260509054200 | 68 | 245 | 2.0 | 5.0 | 0.00 | 0.00 | 0.00 | 75 | 1012.7 |
| 20260509053659 | 69 | 313 | 2.0 | 2.0 | 0.00 | 0.00 | 0.00 | 75 | 1012.7 |
| 20260509053155 | 69 | 113 | 2.0 | 2.0 | 0.00 | 0.00 | 0.00 | 76 | 1012.8 |
| 20260509052653 | 69 | 36 | 2.0 | 2.0 | 0.00 | 0.00 | 0.00 | 76 | 1012.7 |
| 20260509052150 | 69 | 120 | 1.0 | 2.0 | 0.00 | 0.00 | 0.00 | 76 | 1013.0 |
| 20260509051648 | 68 | 91 | 1.0 | 1.0 | 0.00 | 0.00 | 0.00 | 77 | 1012.6 |
| 20260509051145 | 68 | 0 | 1.0 | 2.0 | 0.00 | 0.00 | 0.00 | 78 | 1013.0 |
| 20260509050642 | 68 | 57 | 1.0 | 3.0 | 0.00 | 0.00 | 0.00 | 79 | 1012.7 |
| 20260509050138 | 67 | 91 | 1.0 | 1.0 | 0.00 | 0.00 | 0.00 | 80 | 1012.7 |
| 20260509045636 | 67 | 73 | 2.0 | 2.0 | 0.00 | 0.00 | 0.00 | 81 | 1012.7 |
| 20260509045133 | 66 | 23 | 1.0 | 2.0 | 0.00 | 0.00 | 0.00 | 81 | 1012.9 |
| 20260509044630 | 66 | 11 | 1.0 | 2.0 | 0.00 | 0.00 | 0.00 | 82 | 1012.8 |
| 20260509044127 | 66 | 350 | 1.0 | 1.0 | 0.00 | 0.00 | 0.00 | 82 | 1012.9 |
| 20260509043624 | 66 | 3 | 1.0 | 1.0 | 0.00 | 0.00 | 0.00 | 82 | 1012.8 |
| 20260509043120 | 66 | 42 | 0.0 | 0.0 | 0.00 | 0.00 | 0.00 | 82 | 1012.7 |
| 20260509042617 | 66 | 5 | 1.0 | 1.0 | 0.00 | 0.00 | 0.00 | 83 | 1012.6 |
| 20260509042112 | 65 | 5 | 0.0 | 1.0 | 0.00 | 0.00 | 0.00 | 83 | 1012.6 |
| 20260509041609 | 65 | 5 | 1.0 | 2.0 | 0.00 | 0.00 | 0.00 | 83 | 1012.7 |
| 20260509041106 | 65 | 3 | 1.0 | 2.0 | 0.00 | 0.00 | 0.00 | 83 | 1012.7 |
| 20260509040605 | 65 | 353 | 2.0 | 2.0 | 0.00 | 0.00 | 0.00 | 83 | 1012.9 |
| 20260509040101 | 65 | 14 | 1.0 | 2.0 | 0.00 | 0.00 | 0.00 | 83 | 1012.9 |
| 20260509035558 | 65 | 34 | 0.0 | 1.0 | 0.00 | 0.00 | 0.00 | 83 | 1012.7 |
| 20260509035055 | 65 | 84 | 0.0 | 2.0 | 0.00 | 0.00 | 0.00 | 83 | 1012.6 |
| 20260509034553 | 65 | 72 | 0.0 | 2.0 | 0.00 | 0.00 | 0.00 | 84 | 1012.6 |
| 20260509034049 | 64 | 148 | 3.0 | 5.0 | 0.00 | 0.00 | 0.00 | 84 | 1012.4 |
| 20260509033547 | 64 | 168 | 1.0 | 2.0 | 0.00 | 0.00 | 0.00 | 84 | 1012.4 |
| 20260509033043 | 64 | 35 | 0.0 | 1.0 | 0.00 | 0.00 | 0.00 | 85 | 1012.7 |
| 20260509032541 | 64 | 4 | 1.0 | 1.0 | 0.00 | 0.00 | 0.00 | 84 | 1012.4 |
| 20260509032038 | 64 | 7 | 0.0 | 1.0 | 0.00 | 0.00 | 0.00 | 84 | 1012.5 |
| 20260509031535 | 64 | 14 | 0.0 | 2.0 | 0.00 | 0.00 | 0.00 | 84 | 1012.5 |
| 20260509031033 | 64 | 163 | 0.0 | 2.0 | 0.00 | 0.00 | 0.00 | 84 | 1012.2 |
| 20260509030531 | 64 | 90 | 0.0 | 1.0 | 0.00 | 0.00 | 0.00 | 84 | 1012.2 |
| 20260509030027 | 64 | 174 | 1.0 | 2.0 | 0.00 | 0.00 | 0.00 | 84 | 1011.9 |
| 20260509025524 | 64 | 135 | 1.0 | 2.0 | 0.00 | 0.00 | 0.00 | 84 | 1012.1 |
| 20260509025019 | 64 | 212 | 1.0 | 3.0 | 0.00 | 0.00 | 0.00 | 84 | 1012.1 |
| 20260509024515 | 64 | 158 | 1.0 | 3.0 | 0.00 | 0.00 | 0.00 | 84 | 1012.2 |
| 20260509024012 | 64 | 184 | 1.0 | 2.0 | 0.00 | 0.00 | 0.00 | 84 | 1012.1 |
| 20260509023510 | 64 | 181 | 2.0 | 2.0 | 0.00 | 0.00 | 0.00 | 85 | 1011.9 |
| 20260509023006 | 64 | 142 | 1.0 | 6.0 | 0.00 | 0.00 | 0.00 | 85 | 1012.2 |
| 20260509022502 | 64 | 176 | 2.0 | 3.0 | 0.00 | 0.00 | 0.00 | 85 | 1012.3 |
| 20260509022000 | 65 | 217 | 1.0 | 2.0 | 0.00 | 0.00 | 0.00 | 85 | 1012.0 |
| 20260509021457 | 65 | 178 | 1.0 | 3.0 | 0.00 | 0.00 | 0.00 | 85 | 1012.2 |
| 20260509020954 | 65 | 147 | 2.0 | 3.0 | 0.00 | 0.00 | 0.00 | 85 | 1012.4 |
| 20260509020452 | 65 | 183 | 2.0 | 2.0 | 0.00 | 0.00 | 0.00 | 85 | 1012.3 |
| 20260509015949 | 65 | 136 | 2.0 | 5.0 | 0.00 | 0.00 | 0.00 | 85 | 1012.4 |
| 20260509015448 | 65 | 178 | 3.0 | 3.0 | 0.00 | 0.00 | 0.00 | 85 | 1012.2 |
| 20260509014944 | 64 | 163 | 3.0 | 5.0 | 0.00 | 0.00 | 0.00 | 86 | 1012.3 |
| 20260509014442 | 64 | 198 | 2.0 | 3.0 | 0.00 | 0.00 | 0.00 | 86 | 1012.4 |
| 20260509013938 | 64 | 104 | 0.0 | 2.0 | 0.00 | 0.00 | 0.00 | 86 | 1012.6 |
| 20260509013435 | 64 | 178 | 2.0 | 3.0 | 0.00 | 0.00 | 0.00 | 86 | 1012.7 |
| 20260509012930 | 64 | 194 | 1.0 | 3.0 | 0.00 | 0.00 | 0.00 | 87 | 1012.5 |
| 20260509012427 | 64 | 180 | 2.0 | 5.0 | 0.00 | 0.00 | 0.00 | 87 | 1012.6 |
| 20260509011924 | 64 | 173 | 2.0 | 3.0 | 0.00 | 0.00 | 0.00 | 88 | 1012.5 |
| 20260509011422 | 64 | 151 | 2.0 | 3.0 | 0.00 | 0.00 | 0.00 | 88 | 1012.5 |
| 20260509010920 | 64 | 182 | 2.0 | 2.0 | 0.00 | 0.00 | 0.00 | 88 | 1012.4 |
| 20260509010417 | 64 | 283 | 0.0 | 1.0 | 0.00 | 0.00 | 0.00 | 88 | 1012.5 |
| 20260509005913 | 64 | 186 | 2.0 | 3.0 | 0.00 | 0.00 | 0.00 | 88 | 1012.3 |
| 20260509005411 | 63 | 133 | 1.0 | 2.0 | 0.00 | 0.00 | 0.00 | 89 | 1012.3 |
| 20260509004911 | 62 | 337 | 0.0 | 1.0 | 0.00 | 0.00 | 0.00 | 88 | 1012.6 |
| 20260509004408 | 63 | 176 | 0.0 | 2.0 | 0.00 | 0.00 | 0.00 | 88 | 1012.6 |
| 20260509003906 | 62 | 17 | 0.0 | 0.0 | 0.00 | 0.00 | 0.00 | 89 | 1012.4 |
| 20260509003403 | 63 | 7 | 1.0 | 1.0 | 0.00 | 0.00 | 0.00 | 89 | 1012.5 |
| 20260509002900 | 62 | 222 | 1.0 | 2.0 | 0.00 | 0.00 | 0.00 | 89 | 1012.4 |
| 20260509002358 | 62 | 199 | 0.0 | 1.0 | 0.00 | 0.00 | 0.00 | 89 | 1012.5 |
| 20260509001855 | 62 | 52 | 0.0 | 0.0 | 0.00 | 0.00 | 0.00 | 90 | 1012.7 |
| 20260509001351 | 61 | 52 | 0.0 | 0.0 | 0.00 | 0.00 | 0.00 | 89 | 1012.7 |
| 20260509000849 | 61 | 52 | 0.0 | 1.0 | 0.00 | 0.00 | 0.00 | 89 | 1012.7 |
| 20260509000348 | 62 | 53 | 0.0 | 0.0 | 0.00 | 0.00 | 0.00 | 89 | 1012.4 |
| 20260508235842 | 61 | 43 | 0.0 | 0.0 | 0.00 | 0.00 | 0.00 | 89 | 1012.4 |
| 20260508235340 | 61 | 42 | 0.0 | 0.0 | 0.00 | 0.00 | 0.00 | 89 | 1012.3 |
| 20260508234836 | 61 | 42 | 0.0 | 0.0 | 0.00 | 0.00 | 0.00 | 89 | 1012.1 |
| 20260508234333 | 60 | 44 | 0.0 | 0.0 | 0.00 | 0.00 | 0.00 | 90 | 1012.0 |
| 20260508233832 | 61 | 39 | 0.0 | 0.0 | 0.00 | 0.00 | 0.00 | 89 | 1012.1 |
| 20260508233331 | 61 | 58 | 0.0 | 0.0 | 0.00 | 0.00 | 0.00 | 89 | 1011.8 |
| 20260508232827 | 61 | 55 | 0.0 | 0.0 | 0.00 | 0.00 | 0.00 | 89 | 1011.8 |
| 20260508232323 | 61 | 55 | 0.0 | 0.0 | 0.00 | 0.00 | 0.00 | 89 | 1011.8 |
| 20260508231822 | 61 | 55 | 0.0 | 0.0 | 0.00 | 0.00 | 0.00 | 89 | 1011.9 |
| 20260508231317 | 61 | 56 | 0.0 | 0.0 | 0.00 | 0.00 | 0.00 | 89 | 1012.0 |
| 20260508230815 | 61 | 57 | 0.0 | 0.0 | 0.00 | 0.00 | 0.00 | 89 | 1011.9 |
| 20260508230311 | 61 | 57 | 0.0 | 0.0 | 0.00 | 0.00 | 0.00 | 89 | 1012.0 |
| 20260508225809 | 61 | 33 | 0.0 | 1.0 | 0.00 | 0.00 | 0.00 | 89 | 1011.9 |
| 20260508225306 | 61 | 33 | 0.0 | 1.0 | 0.00 | 0.00 | 0.00 | 89 | 1011.9 |